Time;durP1;ratioP1;P1;durP2;ratioP2;P2;SDS_P1;SDS_P2;PMS_P1;PMS_P2;Temp;Humidity;BMP_temperature;BMP_pressure;BME280_temperature;BME280_humidity;BME280_pressure;Samples;Min_cycle;Max_cycle;Signal;HPM_P1;HPM_P2
2024/01/16 00:00:47;;;;;;;13.37;7.87;;;1.30;99.90;;;;;;5068728;28;20194;-68
2024/01/16 00:03:13;;;;;;;8.20;6.70;;;1.30;99.90;;;;;;5066588;28;20200;-69
2024/01/16 00:05:39;;;;;;;9.50;6.70;;;1.30;99.90;;;;;;5076852;28;20263;-68
2024/01/16 00:08:05;;;;;;;13.73;7.50;;;1.40;99.90;;;;;;5065034;28;20178;-67
2024/01/16 00:10:30;;;;;;;10.73;7.20;;;1.40;99.90;;;;;;5074124;28;20200;-67
2024/01/16 00:12:56;;;;;;;9.30;6.73;;;1.40;99.90;;;;;;5066213;28;20507;-68
2024/01/16 00:15:22;;;;;;;13.43;7.77;;;1.40;99.90;;;;;;5074598;28;20217;-66
2024/01/16 00:17:48;;;;;;;12.53;7.17;;;1.40;99.90;;;;;;5071651;28;20260;-67
2024/01/16 00:20:14;;;;;;;11.90;7.53;;;1.40;99.90;;;;;;5072929;28;20185;-67
2024/01/16 00:22:39;;;;;;;14.63;8.00;;;1.40;99.90;;;;;;5060157;28;20532;-68
2024/01/16 00:25:05;;;;;;;12.73;7.87;;;1.40;99.90;;;;;;5058044;28;20185;-67
2024/01/16 00:27:31;;;;;;;15.17;7.90;;;1.30;99.90;;;;;;5070147;28;20181;-68
2024/01/16 00:29:57;;;;;;;13.63;6.90;;;1.30;99.90;;;;;;5071071;28;20476;-68
2024/01/16 00:32:22;;;;;;;10.47;7.70;;;1.20;99.90;;;;;;5067544;28;20186;-68
2024/01/16 00:34:48;;;;;;;17.70;7.70;;;1.20;99.90;;;;;;5071771;28;20201;-68
2024/01/16 00:37:13;;;;;;;12.80;8.03;;;1.10;99.90;;;;;;5075291;28;20196;-68
2024/01/16 00:39:39;;;;;;;13.73;7.90;;;1.10;99.90;;;;;;5070464;28;20201;-68
2024/01/16 00:42:05;;;;;;;21.33;9.00;;;1.10;99.90;;;;;;5065475;28;20562;-68
2024/01/16 00:44:31;;;;;;;12.37;8.00;;;1.10;99.90;;;;;;5058413;28;20295;-68
2024/01/16 00:46:57;;;;;;;13.80;7.37;;;1.10;99.90;;;;;;5071800;28;20798;-69
2024/01/16 00:49:22;;;;;;;15.00;8.50;;;1.20;99.90;;;;;;5058996;28;20420;-68
2024/01/16 00:51:48;;;;;;;10.83;7.07;;;1.10;99.90;;;;;;5055468;28;20203;-68
2024/01/16 00:54:14;;;;;;;16.43;7.53;;;1.20;99.90;;;;;;5057958;28;20185;-68
2024/01/16 00:56:41;;;;;;;10.87;7.90;;;1.20;99.90;;;;;;5063804;28;20446;-68
2024/01/16 00:59:07;;;;;;;12.33;8.30;;;1.10;99.90;;;;;;5066310;28;20242;-67
2024/01/16 01:01:33;;;;;;;14.00;9.57;;;1.10;99.90;;;;;;5064688;28;20424;-67
2024/01/16 01:03:58;;;;;;;15.53;8.93;;;1.10;99.90;;;;;;5070130;28;20196;-68
2024/01/16 01:06:24;;;;;;;11.23;7.77;;;1.10;99.90;;;;;;5046790;28;20641;-68
2024/01/16 01:08:49;;;;;;;21.77;8.43;;;1.10;99.90;;;;;;5062059;28;20188;-67
2024/01/16 01:11:15;;;;;;;16.03;8.70;;;1.10;99.90;;;;;;5062253;28;20622;-67
2024/01/16 01:13:41;;;;;;;14.40;7.70;;;1.10;99.90;;;;;;5065302;28;20197;-68
2024/01/16 01:16:06;;;;;;;15.40;8.43;;;1.10;99.90;;;;;;5062214;28;20225;-68
2024/01/16 01:18:32;;;;;;;17.00;8.90;;;1.10;99.90;;;;;;5066768;28;20385;-68
2024/01/16 01:20:57;;;;;;;22.30;9.93;;;1.10;99.90;;;;;;5071380;28;20196;-67
2024/01/16 01:23:23;;;;;;;13.60;8.73;;;1.10;99.90;;;;;;5074520;28;20431;-68
2024/01/16 01:25:49;;;;;;;13.70;7.43;;;1.10;99.90;;;;;;5065447;28;20288;-68
2024/01/16 01:28:14;;;;;;;15.83;7.90;;;1.10;99.90;;;;;;5073502;28;20181;-68
2024/01/16 01:30:40;;;;;;;9.30;6.70;;;1.10;99.90;;;;;;5059584;28;20616;-68
2024/01/16 01:33:05;;;;;;;15.57;8.47;;;1.00;99.90;;;;;;5065161;28;20197;-68
2024/01/16 01:35:31;;;;;;;10.00;6.27;;;1.00;99.90;;;;;;5063831;28;20627;-67
2024/01/16 01:37:57;;;;;;;12.17;7.10;;;1.00;99.90;;;;;;5074201;28;20538;-67
2024/01/16 01:40:22;;;;;;;11.33;6.87;;;0.90;99.90;;;;;;5057835;28;20430;-67
2024/01/16 01:42:48;;;;;;;8.83;5.67;;;0.90;99.90;;;;;;5069971;28;20214;-68
2024/01/16 01:45:14;;;;;;;8.20;5.87;;;0.90;99.90;;;;;;5065874;28;20208;-67
2024/01/16 01:47:43;;;;;;;12.80;5.77;;;0.90;99.90;;;;;;5059741;28;20345;-68
2024/01/16 01:50:10;;;;;;;7.80;5.90;;;0.90;99.90;;;;;;5058965;28;20196;-68
2024/01/16 01:52:40;;;;;;;12.47;5.93;;;0.90;99.90;;;;;;5069995;28;20527;-67
2024/01/16 01:55:10;;;;;;;14.60;7.13;;;1.00;99.90;;;;;;5058951;28;20534;-67
2024/01/16 01:57:36;;;;;;;16.03;7.20;;;1.00;99.90;;;;;;5069325;28;20500;-68
2024/01/16 02:00:03;;;;;;;11.10;6.30;;;1.00;99.90;;;;;;5058863;28;20410;-67
2024/01/16 02:02:41;;;;;;;10.77;6.60;;;1.00;99.90;;;;;;5062376;28;20878;-68
2024/01/16 02:05:07;;;;;;;11.50;6.23;;;1.00;99.90;;;;;;5067121;28;20924;-69
2024/01/16 02:07:34;;;;;;;11.37;7.60;;;1.00;99.90;;;;;;5057150;28;20760;-67
2024/01/16 02:10:00;;;;;;;7.53;6.67;;;1.00;99.90;;;;;;5054496;28;20844;-68
2024/01/16 02:12:26;;;;;;;11.77;6.70;;;1.00;99.90;;;;;;5054349;28;20616;-67
2024/01/16 02:14:51;;;;;;;14.40;7.90;;;0.90;99.90;;;;;;5065322;28;20487;-68
2024/01/16 02:17:17;;;;;;;12.43;9.43;;;0.90;99.90;;;;;;5063458;28;20407;-69
2024/01/16 02:19:43;;;;;;;11.67;7.60;;;0.80;99.90;;;;;;5068950;28;20259;-67
2024/01/16 02:22:15;;;;;;;13.93;9.43;;;0.80;99.90;;;;;;5074323;28;20201;-67
2024/01/16 02:24:41;;;;;;;15.97;8.50;;;0.80;99.90;;;;;;5070638;28;20197;-68
2024/01/16 02:27:07;;;;;;;13.27;8.30;;;0.80;99.90;;;;;;5053774;28;20516;-67
2024/01/16 02:29:33;;;;;;;27.10;9.70;;;0.80;99.90;;;;;;5067027;28;20578;-69
2024/01/16 02:31:58;;;;;;;15.00;8.50;;;0.80;99.90;;;;;;5062563;28;20499;-68
2024/01/16 02:34:24;;;;;;;18.57;9.43;;;0.80;99.90;;;;;;5057077;28;20594;-67
2024/01/16 02:36:49;;;;;;;13.67;8.40;;;0.80;99.90;;;;;;5063326;28;20240;-68
2024/01/16 02:39:15;;;;;;;17.03;8.17;;;0.80;99.90;;;;;;5073477;28;20177;-67
2024/01/16 02:41:41;;;;;;;13.40;6.80;;;0.80;99.90;;;;;;5067166;28;20208;-67
2024/01/16 02:44:06;;;;;;;14.47;8.07;;;0.80;99.90;;;;;;5060314;28;20220;-67
2024/01/16 02:46:32;;;;;;;12.37;7.20;;;0.80;99.90;;;;;;5061961;28;20295;-68
2024/01/16 02:48:58;;;;;;;9.53;6.43;;;0.80;99.90;;;;;;5067960;28;20200;-67
2024/01/16 02:51:23;;;;;;;15.00;7.70;;;0.80;99.90;;;;;;5070207;28;20266;-68
2024/01/16 02:53:49;;;;;;;12.50;7.10;;;0.80;99.90;;;;;;5067477;28;20213;-68
2024/01/16 02:56:14;;;;;;;14.63;6.53;;;0.80;99.90;;;;;;5069321;28;20243;-67
2024/01/16 02:58:40;;;;;;;10.37;6.53;;;0.80;99.90;;;;;;5073014;28;20537;-68
2024/01/16 03:01:06;;;;;;;10.07;6.27;;;0.80;99.90;;;;;;5071826;28;20268;-68
2024/01/16 03:03:31;;;;;;;13.07;6.50;;;0.80;99.90;;;;;;5061346;28;20227;-68
2024/01/16 03:05:57;;;;;;;12.23;6.73;;;0.80;99.90;;;;;;5070978;28;20239;-67
2024/01/16 03:08:23;;;;;;;14.03;6.80;;;0.80;99.90;;;;;;5057153;28;20243;-69
2024/01/16 03:10:49;;;;;;;12.07;6.93;;;0.80;99.90;;;;;;5061186;28;20276;-68
2024/01/16 03:13:15;;;;;;;13.00;8.17;;;0.80;99.90;;;;;;5061846;28;20504;-67
2024/01/16 03:15:40;;;;;;;13.10;7.50;;;0.80;99.90;;;;;;5070375;28;20539;-67
2024/01/16 03:18:06;;;;;;;9.27;6.73;;;0.80;99.90;;;;;;5069720;28;20188;-68
2024/01/16 03:20:32;;;;;;;14.40;7.57;;;0.80;99.90;;;;;;5068066;28;20659;-67
2024/01/16 03:22:58;;;;;;;12.07;7.30;;;0.80;99.90;;;;;;5067584;28;20197;-67
2024/01/16 03:25:24;;;;;;;13.40;7.50;;;0.80;99.90;;;;;;5067693;28;20307;-67
2024/01/16 03:27:49;;;;;;;15.57;6.47;;;0.80;99.90;;;;;;5059258;28;20300;-67
2024/01/16 03:30:15;;;;;;;10.37;8.17;;;0.70;99.90;;;;;;5067679;28;20185;-68
2024/01/16 03:32:40;;;;;;;22.50;8.40;;;0.70;99.90;;;;;;5058637;28;20563;-67
2024/01/16 03:35:07;;;;;;;15.10;8.07;;;0.70;99.90;;;;;;5063773;28;20266;-67
2024/01/16 03:37:33;;;;;;;23.47;7.60;;;0.80;99.90;;;;;;5066108;28;20185;-67
2024/01/16 03:39:59;;;;;;;17.47;7.43;;;0.80;99.90;;;;;;5066310;28;20698;-67
2024/01/16 03:42:25;;;;;;;9.57;6.87;;;0.80;99.90;;;;;;5070348;28;20601;-67
2024/01/16 03:44:51;;;;;;;13.43;7.10;;;0.80;99.90;;;;;;5074076;28;20490;-68
2024/01/16 03:47:17;;;;;;;13.87;8.53;;;0.80;99.90;;;;;;5056420;28;20193;-68
2024/01/16 03:49:43;;;;;;;16.73;8.37;;;0.80;99.90;;;;;;5056300;28;20416;-68
2024/01/16 03:52:08;;;;;;;12.47;7.90;;;0.80;99.90;;;;;;5056421;28;20507;-68
2024/01/16 03:54:34;;;;;;;14.90;7.80;;;0.80;99.90;;;;;;5063210;28;20605;-68
2024/01/16 03:56:59;;;;;;;19.30;9.27;;;0.90;99.90;;;;;;5070125;28;20209;-67
2024/01/16 03:59:25;;;;;;;18.17;9.00;;;0.90;99.90;;;;;;5069271;28;20259;-68
2024/01/16 04:01:51;;;;;;;13.37;8.60;;;0.90;99.90;;;;;;5056192;28;20225;-68
2024/01/16 04:04:16;;;;;;;9.93;8.43;;;0.90;99.90;;;;;;5059016;28;20222;-68
2024/01/16 04:06:42;;;;;;;12.40;8.77;;;0.90;99.90;;;;;;5066397;28;20212;-68
2024/01/16 04:09:09;;;;;;;11.33;8.60;;;0.90;99.90;;;;;;5075963;28;20295;-67
2024/01/16 04:11:35;;;;;;;12.97;8.00;;;0.90;99.90;;;;;;5065389;28;20529;-69
2024/01/16 04:14:01;;;;;;;12.50;7.73;;;0.80;99.90;;;;;;5063562;28;20408;-68
2024/01/16 04:16:27;;;;;;;11.73;9.43;;;0.80;99.90;;;;;;5073222;28;20452;-68
2024/01/16 04:18:53;;;;;;;15.80;8.87;;;0.80;99.90;;;;;;5067007;28;20449;-68
2024/01/16 04:21:18;;;;;;;13.50;9.73;;;0.80;99.90;;;;;;5063739;28;20606;-68
2024/01/16 04:23:44;;;;;;;15.00;8.87;;;0.80;99.90;;;;;;5056710;28;20243;-68
2024/01/16 04:26:10;;;;;;;14.10;9.70;;;0.70;99.90;;;;;;5075819;28;20265;-67
2024/01/16 04:28:37;;;;;;;15.23;8.97;;;0.70;99.90;;;;;;5071516;28;20641;-68
2024/01/16 04:31:03;;;;;;;23.10;10.30;;;0.70;99.90;;;;;;5073939;28;20201;-68
2024/01/16 04:33:29;;;;;;;14.43;9.90;;;0.70;99.90;;;;;;5056739;28;20837;-68
2024/01/16 04:35:55;;;;;;;10.90;8.70;;;0.60;99.90;;;;;;5064223;28;20463;-68
2024/01/16 04:38:20;;;;;;;20.00;8.77;;;0.70;99.90;;;;;;5056951;28;20177;-67
2024/01/16 04:40:46;;;;;;;18.77;8.87;;;0.70;99.90;;;;;;5070092;28;20419;-68
2024/01/16 04:43:12;;;;;;;12.17;8.37;;;0.60;99.90;;;;;;5076887;28;20216;-69
2024/01/16 04:45:37;;;;;;;13.23;8.00;;;0.60;99.90;;;;;;5065577;28;20221;-68
2024/01/16 04:48:03;;;;;;;19.73;8.13;;;0.70;99.90;;;;;;5059199;28;20247;-68
2024/01/16 04:50:31;;;;;;;15.13;7.57;;;0.70;99.90;;;;;;5065620;28;20193;-69
2024/01/16 04:53:01;;;;;;;18.63;7.67;;;0.70;99.90;;;;;;5067503;28;20903;-68
2024/01/16 04:55:28;;;;;;;12.20;6.53;;;0.70;99.90;;;;;;5022034;28;20765;-68
2024/01/16 04:57:54;;;;;;;11.27;7.10;;;0.70;99.90;;;;;;5037284;28;20424;-68
2024/01/16 05:00:20;;;;;;;13.30;6.60;;;0.70;99.90;;;;;;5055907;28;20715;-68
2024/01/16 05:02:46;;;;;;;14.50;6.30;;;0.70;99.90;;;;;;5070646;28;20442;-67
2024/01/16 05:05:12;;;;;;;16.77;6.30;;;0.70;99.90;;;;;;5071935;28;20439;-68
2024/01/16 05:07:38;;;;;;;15.97;8.57;;;0.70;99.90;;;;;;5066673;28;20457;-69
2024/01/16 05:10:04;;;;;;;14.73;5.73;;;0.70;99.90;;;;;;5077149;28;20612;-69
2024/01/16 05:12:30;;;;;;;12.17;5.80;;;0.70;99.90;;;;;;5074140;28;20196;-70
2024/01/16 05:14:55;;;;;;;13.80;6.07;;;0.70;99.90;;;;;;5066373;28;20456;-68
2024/01/16 05:17:21;;;;;;;13.23;5.53;;;0.70;99.90;;;;;;5065851;28;20478;-67
2024/01/16 05:19:46;;;;;;;11.53;5.40;;;0.80;99.90;;;;;;5059187;28;20219;-70
2024/01/16 05:22:12;;;;;;;9.27;6.10;;;0.80;99.90;;;;;;5071236;28;20224;-69
2024/01/16 05:24:38;;;;;;;14.80;7.07;;;0.80;99.90;;;;;;5056512;28;20490;-71
2024/01/16 05:27:04;;;;;;;10.90;6.10;;;0.80;99.90;;;;;;5070671;28;20209;-69
2024/01/16 05:29:31;;;;;;;8.10;5.30;;;0.90;99.90;;;;;;5063850;28;20173;-71
2024/01/16 05:31:57;;;;;;;12.20;5.97;;;0.90;99.90;;;;;;5062142;28;20424;-68
2024/01/16 05:34:22;;;;;;;9.17;6.20;;;0.90;99.90;;;;;;5071280;28;20547;-67
2024/01/16 05:36:48;;;;;;;10.03;6.27;;;0.90;99.90;;;;;;5077817;28;20799;-71
2024/01/16 05:39:13;;;;;;;12.67;6.43;;;0.90;99.90;;;;;;5071995;28;20186;-68
2024/01/16 05:41:39;;;;;;;15.77;6.80;;;0.90;99.90;;;;;;5077911;28;20205;-70
2024/01/16 05:44:04;;;;;;;18.37;6.47;;;0.90;99.90;;;;;;5076162;28;20592;-70
2024/01/16 05:46:33;;;;;;;17.63;7.10;;;0.90;99.90;;;;;;5045054;28;20292;-70
2024/01/16 05:48:59;;;;;;;17.37;6.60;;;0.90;99.90;;;;;;5062057;28;20268;-68
2024/01/16 05:51:31;;;;;;;20.13;7.13;;;0.90;99.90;;;;;;5057169;28;20470;-69
2024/01/16 05:53:57;;;;;;;10.10;6.27;;;0.90;99.90;;;;;;5065848;28;20510;-74
2024/01/16 05:56:23;;;;;;;12.77;7.50;;;0.90;99.90;;;;;;5049352;28;20526;-69
2024/01/16 05:58:48;;;;;;;15.43;7.00;;;0.90;99.90;;;;;;5063072;28;20240;-68
2024/01/16 06:01:14;;;;;;;17.93;6.77;;;0.90;99.90;;;;;;5068697;28;20241;-69
2024/01/16 06:03:40;;;;;;;15.77;7.03;;;0.90;99.90;;;;;;5071263;28;20277;-72
2024/01/16 06:06:07;;;;;;;15.20;7.10;;;0.90;99.90;;;;;;5061634;28;20490;-69
2024/01/16 06:08:35;;;;;;;7.00;5.83;;;0.90;99.90;;;;;;5063392;28;20419;-69
2024/01/16 06:11:01;;;;;;;11.53;6.20;;;0.90;99.90;;;;;;5073931;28;20416;-69
2024/01/16 06:13:27;;;;;;;10.57;5.90;;;0.90;99.90;;;;;;5068848;28;20446;-68
2024/01/16 06:15:52;;;;;;;9.97;6.83;;;0.90;99.90;;;;;;5074455;28;20288;-70
2024/01/16 06:18:18;;;;;;;15.00;5.80;;;0.80;99.90;;;;;;5068966;28;20192;-70
2024/01/16 06:20:43;;;;;;;7.63;5.00;;;0.80;99.90;;;;;;5058866;28;20544;-70
2024/01/16 06:23:09;;;;;;;14.70;5.67;;;0.70;99.90;;;;;;5043499;28;20268;-70
2024/01/16 06:25:36;;;;;;;10.57;5.60;;;0.70;99.90;;;;;;5060853;28;20216;-68
2024/01/16 06:28:03;;;;;;;10.77;5.07;;;0.60;99.90;;;;;;5065242;28;20194;-70
2024/01/16 06:30:28;;;;;;;10.03;4.90;;;0.60;99.90;;;;;;5060450;28;20475;-69
2024/01/16 06:32:54;;;;;;;8.47;5.57;;;0.60;99.90;;;;;;5080517;28;20461;-72
2024/01/16 06:35:20;;;;;;;12.53;5.20;;;0.60;99.90;;;;;;5063224;28;20216;-70
2024/01/16 06:37:45;;;;;;;14.20;6.63;;;0.70;99.90;;;;;;5078181;28;20562;-72
2024/01/16 06:40:11;;;;;;;16.20;7.10;;;0.70;99.90;;;;;;5081586;28;20212;-71
2024/01/16 06:42:38;;;;;;;11.27;4.90;;;0.70;99.90;;;;;;5067168;28;20217;-74
2024/01/16 06:45:05;;;;;;;11.27;5.47;;;0.80;99.90;;;;;;5085021;28;20308;-73
2024/01/16 06:47:31;;;;;;;14.80;4.80;;;0.80;99.90;;;;;;5063961;28;20422;-73
2024/01/16 06:49:56;;;;;;;16.40;5.30;;;0.80;99.90;;;;;;5071291;28;20434;-70
2024/01/16 06:52:22;;;;;;;18.53;5.90;;;0.80;99.90;;;;;;5062498;28;20521;-71
2024/01/16 06:54:47;;;;;;;13.80;5.80;;;0.80;99.90;;;;;;5069405;28;20229;-70
2024/01/16 06:57:13;;;;;;;12.80;5.10;;;0.80;99.90;;;;;;5075816;28;20204;-71
2024/01/16 06:59:39;;;;;;;11.73;4.60;;;0.90;99.90;;;;;;5064295;28;20190;-72
2024/01/16 07:02:04;;;;;;;9.40;4.03;;;0.90;99.90;;;;;;5070619;28;20193;-69
2024/01/16 07:04:32;;;;;;;12.53;4.80;;;0.90;99.90;;;;;;5078568;28;20191;-69
2024/01/16 07:06:59;;;;;;;8.50;4.73;;;0.90;99.90;;;;;;5072229;28;20224;-73
2024/01/16 07:09:25;;;;;;;9.40;4.73;;;0.90;99.90;;;;;;5071772;28;20444;-72
2024/01/16 07:11:51;;;;;;;8.00;4.37;;;0.90;99.90;;;;;;5082172;28;20430;-73
2024/01/16 07:14:16;;;;;;;14.80;5.40;;;0.90;99.90;;;;;;5072756;28;20491;-70
2024/01/16 07:16:43;;;;;;;20.80;5.00;;;0.90;99.90;;;;;;5065143;28;20242;-70
2024/01/16 07:19:08;;;;;;;9.80;4.20;;;0.90;99.90;;;;;;5071930;28;20660;-70
2024/01/16 07:21:35;;;;;;;7.30;4.00;;;0.90;99.90;;;;;;5062266;28;20451;-72
2024/01/16 07:24:00;;;;;;;5.13;3.80;;;0.90;99.90;;;;;;5045967;28;20602;-71
2024/01/16 07:26:26;;;;;;;13.10;4.00;;;0.90;99.90;;;;;;5063915;28;20496;-72
2024/01/16 07:28:52;;;;;;;8.20;3.83;;;1.00;99.90;;;;;;5067461;28;20243;-72
2024/01/16 07:31:17;;;;;;;7.87;4.30;;;1.00;99.90;;;;;;5067847;28;20260;-73
2024/01/16 07:33:43;;;;;;;14.23;4.23;;;1.00;99.90;;;;;;5048364;28;20591;-70
2024/01/16 07:36:12;;;;;;;7.67;3.57;;;1.00;99.90;;;;;;5071998;28;20221;-71
2024/01/16 07:38:38;;;;;;;6.73;3.10;;;1.00;99.90;;;;;;5061449;28;20692;-72
2024/01/16 07:41:04;;;;;;;10.83;3.57;;;1.10;99.90;;;;;;5069171;28;20403;-72
2024/01/16 07:43:29;;;;;;;9.70;4.30;;;1.10;99.90;;;;;;5069341;28;20264;-74
2024/01/16 07:45:55;;;;;;;8.93;3.13;;;1.10;99.90;;;;;;5065927;28;20436;-73
2024/01/16 07:48:22;;;;;;;8.83;3.77;;;1.10;99.90;;;;;;5063841;28;20197;-73
2024/01/16 07:50:49;;;;;;;7.27;4.00;;;1.10;99.90;;;;;;5053981;28;20616;-72
2024/01/16 07:53:15;;;;;;;10.83;4.27;;;1.10;99.90;;;;;;5069127;28;20478;-71
2024/01/16 07:55:41;;;;;;;8.53;4.10;;;1.10;99.90;;;;;;5065083;28;20462;-72
2024/01/16 07:58:07;;;;;;;9.00;4.40;;;1.10;99.90;;;;;;5065224;28;20412;-71
2024/01/16 08:00:33;;;;;;;8.50;3.60;;;1.10;99.90;;;;;;5067864;28;20428;-70
2024/01/16 08:02:58;;;;;;;9.80;3.73;;;1.10;99.90;;;;;;5066694;28;20186;-71
2024/01/16 08:05:27;;;;;;;7.33;3.80;;;1.10;99.90;;;;;;5055212;28;20217;-71
2024/01/16 08:07:53;;;;;;;8.53;4.43;;;1.10;99.90;;;;;;5064236;28;20190;-71
2024/01/16 08:10:19;;;;;;;11.13;4.40;;;1.20;99.90;;;;;;5063342;28;20455;-70
2024/01/16 08:12:45;;;;;;;7.03;3.27;;;1.20;99.90;;;;;;5070380;28;20416;-70
2024/01/16 08:15:10;;;;;;;6.47;3.30;;;1.20;99.90;;;;;;5069148;28;20629;-76
2024/01/16 08:17:36;;;;;;;6.40;2.87;;;1.30;99.90;;;;;;5068305;28;20231;-72
2024/01/16 08:20:03;;;;;;;15.30;2.93;;;1.30;99.90;;;;;;5070105;28;20450;-73
2024/01/16 08:22:28;;;;;;;6.53;3.33;;;1.30;99.90;;;;;;5076505;28;20478;-72
2024/01/16 08:24:54;;;;;;;8.90;3.37;;;1.40;99.90;;;;;;5066095;28;20424;-73
2024/01/16 08:27:20;;;;;;;11.03;3.30;;;1.40;99.90;;;;;;5066252;28;20548;-73
2024/01/16 08:29:48;;;;;;;7.13;3.40;;;1.50;99.90;;;;;;5061614;28;20561;-72
2024/01/16 08:32:14;;;;;;;8.93;2.90;;;1.50;99.90;;;;;;5058347;28;20188;-72
2024/01/16 08:34:40;;;;;;;10.50;3.60;;;1.60;99.90;;;;;;5071662;28;20460;-73
2024/01/16 08:37:05;;;;;;;9.33;3.67;;;1.60;99.90;;;;;;5064684;28;20248;-73
2024/01/16 08:39:33;;;;;;;12.10;3.10;;;1.60;99.90;;;;;;5068094;28;20378;-73
2024/01/16 08:41:59;;;;;;;7.90;3.30;;;1.70;99.90;;;;;;5069622;28;20712;-73
2024/01/16 08:44:24;;;;;;;13.13;4.20;;;1.70;99.90;;;;;;5063787;28;20451;-70
2024/01/16 08:46:50;;;;;;;6.40;4.10;;;1.70;99.90;;;;;;5053896;28;20247;-71
2024/01/16 08:49:16;;;;;;;12.27;4.20;;;1.80;99.90;;;;;;5063705;28;20227;-71
2024/01/16 08:51:41;;;;;;;9.97;3.10;;;1.70;99.90;;;;;;5074540;28;20303;-72
2024/01/16 08:54:07;;;;;;;5.87;3.60;;;1.70;99.90;;;;;;5077470;28;20220;-72
2024/01/16 08:56:33;;;;;;;6.53;2.80;;;1.60;99.90;;;;;;5061024;28;20224;-70
2024/01/16 08:58:58;;;;;;;6.60;4.07;;;1.60;99.90;;;;;;5062555;28;20475;-73
2024/01/16 09:01:24;;;;;;;11.20;3.10;;;1.60;99.90;;;;;;5071323;28;20181;-71
2024/01/16 09:03:50;;;;;;;6.17;3.23;;;1.50;99.90;;;;;;5062081;28;20190;-69
2024/01/16 09:06:15;;;;;;;8.03;3.10;;;1.50;99.90;;;;;;5071427;28;20207;-73
2024/01/16 09:08:41;;;;;;;5.30;2.40;;;1.60;99.90;;;;;;5041245;28;20190;-72
2024/01/16 09:11:07;;;;;;;7.37;3.37;;;1.70;99.90;;;;;;5056577;28;20188;-71
2024/01/16 09:13:33;;;;;;;6.83;2.70;;;1.70;99.90;;;;;;5051449;28;20499;-70
2024/01/16 09:15:59;;;;;;;12.77;4.60;;;1.70;99.90;;;;;;5065268;28;20829;-74
2024/01/16 09:18:24;;;;;;;11.60;4.20;;;1.80;99.90;;;;;;5048359;28;20440;-71
2024/01/16 09:20:50;;;;;;;7.90;3.47;;;1.80;99.90;;;;;;5068960;28;20205;-71
2024/01/16 09:23:16;;;;;;;5.93;2.83;;;1.80;99.90;;;;;;5087062;28;20255;-71
2024/01/16 09:25:41;;;;;;;9.50;3.17;;;1.90;99.90;;;;;;5077348;28;20427;-71
2024/01/16 09:28:07;;;;;;;16.50;4.17;;;1.90;99.90;;;;;;5061835;28;20181;-72
2024/01/16 09:30:33;;;;;;;8.97;3.17;;;1.90;99.90;;;;;;5055774;28;20209;-69
2024/01/16 09:32:59;;;;;;;6.07;2.97;;;2.00;99.90;;;;;;5072349;28;20431;-70
2024/01/16 09:35:24;;;;;;;4.93;2.73;;;2.00;99.90;;;;;;5076891;28;20217;-69
2024/01/16 09:37:50;;;;;;;7.30;2.73;;;2.00;99.90;;;;;;5077863;28;20306;-72
2024/01/16 09:40:16;;;;;;;5.97;2.97;;;2.00;99.90;;;;;;5061442;28;20173;-71
2024/01/16 09:42:42;;;;;;;11.30;3.40;;;2.00;99.90;;;;;;5073449;28;20486;-70
2024/01/16 09:45:09;;;;;;;8.40;3.97;;;2.00;99.90;;;;;;5030877;28;20246;-72
2024/01/16 09:47:37;;;;;;;7.40;3.33;;;2.00;99.90;;;;;;5059979;28;20522;-71
2024/01/16 09:50:03;;;;;;;8.93;3.27;;;2.00;99.90;;;;;;5054162;28;20435;-72
2024/01/16 09:52:29;;;;;;;8.93;3.03;;;2.00;99.90;;;;;;5052223;28;20460;-71
2024/01/16 09:54:55;;;;;;;11.33;3.57;;;2.10;99.90;;;;;;5070801;28;20470;-70
2024/01/16 09:57:24;;;;;;;10.20;3.47;;;2.10;99.90;;;;;;5042978;28;20193;-71
2024/01/16 09:59:55;;;;;;;10.70;4.00;;;2.20;99.90;;;;;;5048529;28;20844;-73
2024/01/16 10:02:21;;;;;;;5.70;3.50;;;2.20;99.90;;;;;;5065973;28;20422;-74
2024/01/16 10:04:47;;;;;;;12.23;3.87;;;2.30;99.90;;;;;;5048839;28;20515;-70
2024/01/16 10:07:15;;;;;;;9.40;4.20;;;2.30;99.60;;;;;;5066112;28;20520;-74
2024/01/16 10:09:41;;;;;;;11.07;3.70;;;2.30;99.90;;;;;;5062667;28;20408;-73
2024/01/16 10:12:08;;;;;;;7.87;3.80;;;2.40;99.50;;;;;;5036722;28;20713;-69
2024/01/16 10:14:34;;;;;;;10.73;3.63;;;2.50;99.40;;;;;;5070819;28;20239;-73
2024/01/16 10:17:15;;;;;;;8.63;3.80;;;2.50;98.60;;;;;;5039105;28;20755;-71
2024/01/16 10:19:56;;;;;;;13.00;3.37;;;2.60;98.70;;;;;;5071133;28;20439;-72
2024/01/16 10:22:27;;;;;;;7.30;3.27;;;2.80;98.40;;;;;;5053721;28;20444;-71
2024/01/16 10:25:16;;;;;;;5.07;2.90;;;2.80;97.60;;;;;;5057078;28;20419;-72
2024/01/16 10:27:42;;;;;;;8.60;2.83;;;3.00;96.90;;;;;;5032577;28;20424;-70
2024/01/16 10:30:10;;;;;;;9.63;4.00;;;3.10;95.60;;;;;;5060885;28;20424;-70
2024/01/16 10:32:43;;;;;;;11.23;3.03;;;3.10;94.50;;;;;;5059666;28;20745;-71
2024/01/16 10:35:13;;;;;;;7.80;3.20;;;3.30;94.90;;;;;;5063927;28;20460;-71
2024/01/16 10:37:48;;;;;;;13.27;3.40;;;3.40;94.80;;;;;;5065594;28;20472;-75
2024/01/16 10:40:18;;;;;;;19.27;4.50;;;3.50;93.40;;;;;;5053667;28;20432;-71
2024/01/16 10:42:46;;;;;;;9.00;3.00;;;3.60;92.80;;;;;;5078001;28;20463;-71
2024/01/16 10:45:20;;;;;;;8.83;2.33;;;3.50;91.50;;;;;;5065705;28;20716;-73
2024/01/16 10:47:46;;;;;;;14.30;4.00;;;3.40;92.00;;;;;;5036355;28;20438;-73
2024/01/16 10:50:12;;;;;;;5.10;3.10;;;3.40;91.90;;;;;;5072689;28;20459;-69
2024/01/16 10:52:47;;;;;;;7.00;3.57;;;3.30;90.70;;;;;;5068465;28;20776;-72
2024/01/16 10:55:19;;;;;;;13.40;4.07;;;3.20;90.50;;;;;;5055205;28;20479;-72
2024/01/16 10:57:47;;;;;;;7.80;3.63;;;3.00;90.80;;;;;;5063454;28;20415;-73
2024/01/16 11:00:15;;;;;;;9.70;3.30;;;2.90;90.90;;;;;;5059811;28;20420;-71
2024/01/16 11:02:50;;;;;;;9.57;3.70;;;2.70;90.30;;;;;;5063512;28;20420;-74
2024/01/16 11:05:17;;;;;;;8.03;3.10;;;2.60;91.00;;;;;;5067784;28;20446;-72
2024/01/16 11:07:44;;;;;;;10.73;3.90;;;2.60;91.30;;;;;;5061767;28;20426;-71
2024/01/16 11:10:10;;;;;;;14.23;3.47;;;2.60;91.40;;;;;;5084907;28;20177;-70
2024/01/16 11:12:39;;;;;;;10.50;3.40;;;2.50;91.10;;;;;;5052224;28;20438;-73
2024/01/16 11:15:07;;;;;;;13.73;3.27;;;2.50;91.10;;;;;;5062527;28;20597;-71
2024/01/16 11:17:37;;;;;;;8.63;3.63;;;2.40;91.50;;;;;;5052800;28;20507;-70
2024/01/16 11:20:10;;;;;;;6.27;3.17;;;2.30;91.60;;;;;;5065408;28;20432;-70
2024/01/16 11:22:44;;;;;;;8.63;4.70;;;2.30;91.80;;;;;;5078917;28;20701;-73
2024/01/16 11:25:14;;;;;;;12.20;2.70;;;2.10;91.70;;;;;;5083352;28;20442;-70
2024/01/16 11:27:41;;;;;;;9.07;3.40;;;2.10;92.00;;;;;;5064136;28;20428;-69
2024/01/16 11:30:09;;;;;;;11.93;3.60;;;2.00;92.10;;;;;;5072525;28;20716;-72
2024/01/16 11:32:37;;;;;;;10.27;3.10;;;2.00;92.30;;;;;;5079987;28;20431;-72
2024/01/16 11:35:04;;;;;;;16.47;5.70;;;1.90;92.50;;;;;;5063396;28;20477;-72
2024/01/16 11:37:34;;;;;;;8.60;3.72;;;2.00;92.60;;;;;;5054903;28;20420;-72
2024/01/16 11:40:21;;;;;;;13.70;4.17;;;2.00;92.90;;;;;;5081951;28;20185;-74
2024/01/16 11:42:52;;;;;;;8.37;3.40;;;2.00;92.10;;;;;;5070444;28;20449;-74
2024/01/16 11:45:27;;;;;;;10.13;3.23;;;2.00;92.50;;;;;;5045920;28;20449;-74
2024/01/16 11:48:18;;;;;;;9.20;3.70;;;2.00;92.40;;;;;;5059405;28;20440;-71
2024/01/16 11:50:44;;;;;;;14.20;4.40;;;2.10;91.70;;;;;;5064734;28;20892;-72
2024/01/16 11:53:10;;;;;;;7.17;3.40;;;2.10;90.90;;;;;;5055915;28;20547;-72
2024/01/16 11:56:05;;;;;;;10.10;3.67;;;2.10;90.40;;;;;;5070653;28;20464;-72
2024/01/16 11:59:02;;;;;;;9.10;3.63;;;2.10;89.80;;;;;;5064464;28;20217;-70
2024/01/16 12:01:29;;;;;;;12.60;4.43;;;2.10;89.80;;;;;;5078529;28;20475;-71
2024/01/16 12:04:07;;;;;;;8.07;2.70;;;2.00;90.10;;;;;;5071633;28;20401;-73
2024/01/16 12:06:35;;;;;;;8.77;3.63;;;2.00;90.50;;;;;;5070772;28;20443;-73
2024/01/16 12:09:15;;;;;;;6.93;3.23;;;2.00;90.60;;;;;;5039716;28;20427;-75
2024/01/16 12:11:45;;;;;;;13.43;3.20;;;2.00;90.60;;;;;;5077111;28;20411;-70
2024/01/16 12:14:14;;;;;;;9.10;3.97;;;2.10;90.60;;;;;;5081750;28;20446;-71
2024/01/16 12:16:39;;;;;;;11.17;3.07;;;2.10;90.30;;;;;;5078711;28;20464;-72
2024/01/16 12:19:09;;;;;;;5.77;3.20;;;2.30;90.20;;;;;;5061878;28;20450;-74
2024/01/16 12:21:43;;;;;;;7.00;4.27;;;2.50;89.00;;;;;;5075766;28;20474;-73
2024/01/16 12:24:10;;;;;;;11.45;3.97;;;2.60;87.80;;;;;;5052083;28;20484;-72
2024/01/16 12:26:37;;;;;;;10.37;4.03;;;2.70;86.50;;;;;;5055014;28;20208;-75
2024/01/16 12:29:03;;;;;;;11.20;3.60;;;2.90;86.40;;;;;;5055376;28;20419;-75
2024/01/16 12:31:29;;;;;;;9.70;3.50;;;3.00;83.60;;;;;;5083938;28;20424;-72
2024/01/16 12:34:08;;;;;;;7.60;3.50;;;3.00;84.30;;;;;;5069134;28;20465;-73
2024/01/16 12:36:34;;;;;;;5.77;3.43;;;3.20;85.00;;;;;;5081560;28;20220;-73
2024/01/16 12:39:00;;;;;;;12.98;4.78;;;3.30;83.80;;;;;;5076703;28;20482;-75
2024/01/16 12:41:31;;;;;;;9.50;3.07;;;3.40;82.10;;;;;;5062190;28;20212;-74
2024/01/16 12:43:57;;;;;;;8.00;3.87;;;3.50;81.80;;;;;;5031568;28;20192;-75
2024/01/16 12:46:23;;;;;;;6.63;4.00;;;3.50;81.80;;;;;;5061555;28;20812;-73
2024/01/16 12:48:49;;;;;;;11.17;4.60;;;3.50;80.40;;;;;;5085518;28;20198;-71